sensor_id;sensor_type;location;lat;lon;timestamp;pressure;altitude;pressure_sealevel;temperature;humidity
39105;BME280;46464;51.154;13.812;2022-12-18T00:02:11;100813.00;;;-10.10;100.00
39105;BME280;46464;51.154;13.812;2022-12-18T00:04:38;100811.28;;;-10.10;100.00
39105;BME280;46464;51.154;13.812;2022-12-18T00:07:04;100806.91;;;-10.11;100.00
39105;BME280;46464;51.154;13.812;2022-12-18T00:09:31;100805.28;;;-10.09;100.00
39105;BME280;46464;51.154;13.812;2022-12-18T00:12:06;100810.75;;;-10.19;100.00
39105;BME280;46464;51.154;13.812;2022-12-18T00:14:43;100814.88;;;-10.23;100.00
39105;BME280;46464;51.154;13.812;2022-12-18T00:17:10;100817.84;;;-10.16;100.00
39105;BME280;46464;51.154;13.812;2022-12-18T00:19:36;100819.56;;;-10.17;100.00
39105;BME280;46464;51.154;13.812;2022-12-18T00:22:03;100818.34;;;-10.22;100.00
39105;BME280;46464;51.154;13.812;2022-12-18T00:24:29;100825.44;;;-10.19;100.00
39105;BME280;46464;51.154;13.812;2022-12-18T00:26:56;100837.63;;;-10.18;100.00
39105;BME280;46464;51.154;13.812;2022-12-18T00:29:22;100833.78;;;-10.25;100.00
39105;BME280;46464;51.154;13.812;2022-12-18T00:31:49;100845.97;;;-10.24;100.00
39105;BME280;46464;51.154;13.812;2022-12-18T00:34:16;100844.81;;;-10.29;100.00
39105;BME280;46464;51.154;13.812;2022-12-18T00:36:42;100845.59;;;-10.30;100.00
39105;BME280;46464;51.154;13.812;2022-12-18T00:39:10;100840.66;;;-10.26;100.00
39105;BME280;46464;51.154;13.812;2022-12-18T00:41:37;100840.22;;;-10.18;100.00
39105;BME280;46464;51.154;13.812;2022-12-18T00:44:22;100837.81;;;-10.15;100.00
39105;BME280;46464;51.154;13.812;2022-12-18T00:46:49;100849.78;;;-10.32;100.00
39105;BME280;46464;51.154;13.812;2022-12-18T00:49:17;100859.75;;;-10.40;100.00
39105;BME280;46464;51.154;13.812;2022-12-18T00:51:45;100866.66;;;-10.41;100.00
39105;BME280;46464;51.154;13.812;2022-12-18T00:54:12;100869.78;;;-10.46;100.00
39105;BME280;46464;51.154;13.812;2022-12-18T00:56:39;100871.84;;;-10.41;100.00
39105;BME280;46464;51.154;13.812;2022-12-18T00:59:14;100866.47;;;-10.44;100.00
39105;BME280;46464;51.154;13.812;2022-12-18T01:01:40;100871.75;;;-10.42;100.00
39105;BME280;46464;51.154;13.812;2022-12-18T01:04:07;100866.56;;;-10.42;100.00
39105;BME280;46464;51.154;13.812;2022-12-18T01:06:34;100872.97;;;-10.50;100.00
39105;BME280;46464;51.154;13.812;2022-12-18T01:09:00;100863.22;;;-10.55;100.00
39105;BME280;46464;51.154;13.812;2022-12-18T01:11:27;100868.03;;;-10.61;100.00
39105;BME280;46464;51.154;13.812;2022-12-18T01:13:54;100860.84;;;-10.65;100.00
39105;BME280;46464;51.154;13.812;2022-12-18T01:16:21;100861.56;;;-10.67;100.00
39105;BME280;46464;51.154;13.812;2022-12-18T01:18:51;100860.19;;;-10.76;100.00
39105;BME280;46464;51.154;13.812;2022-12-18T01:21:21;100863.41;;;-10.80;100.00
39105;BME280;46464;51.154;13.812;2022-12-18T01:23:51;100869.09;;;-10.85;100.00
39105;BME280;46464;51.154;13.812;2022-12-18T01:26:18;100870.81;;;-10.99;100.00
39105;BME280;46464;51.154;13.812;2022-12-18T01:28:45;100871.22;;;-11.07;100.00
39105;BME280;46464;51.154;13.812;2022-12-18T01:33:38;100873.66;;;-11.23;100.00
39105;BME280;46464;51.154;13.812;2022-12-18T01:36:05;100874.94;;;-11.30;100.00
39105;BME280;46464;51.154;13.812;2022-12-18T01:38:34;100873.56;;;-11.38;100.00
39105;BME280;46464;51.154;13.812;2022-12-18T01:41:01;100871.84;;;-11.38;100.00
39105;BME280;46464;51.154;13.812;2022-12-18T01:43:44;100878.34;;;-11.31;100.00
39105;BME280;46464;51.154;13.812;2022-12-18T01:46:12;100875.16;;;-11.27;100.00
39105;BME280;46464;51.154;13.812;2022-12-18T01:48:39;100872.25;;;-11.31;100.00
39105;BME280;46464;51.154;13.812;2022-12-18T01:51:08;100892.22;;;-11.30;100.00
39105;BME280;46464;51.154;13.812;2022-12-18T01:53:37;100886.31;;;-11.28;100.00
39105;BME280;46464;51.154;13.812;2022-12-18T01:56:06;100889.44;;;-11.33;100.00
39105;BME280;46464;51.154;13.812;2022-12-18T02:01:05;100878.22;;;-11.19;100.00
39105;BME280;46464;51.154;13.812;2022-12-18T02:03:32;100875.94;;;-11.14;100.00
39105;BME280;46464;51.154;13.812;2022-12-18T02:06:17;100875.16;;;-11.13;100.00
39105;BME280;46464;51.154;13.812;2022-12-18T02:08:55;100877.22;;;-11.08;100.00
39105;BME280;46464;51.154;13.812;2022-12-18T02:14:13;100884.19;;;-11.07;100.00
39105;BME280;46464;51.154;13.812;2022-12-18T02:16:44;100881.53;;;-11.08;100.00
39105;BME280;46464;51.154;13.812;2022-12-18T02:19:47;100886.63;;;-11.10;100.00
39105;BME280;46464;51.154;13.812;2022-12-18T02:25:25;100879.31;;;-11.15;100.00
39105;BME280;46464;51.154;13.812;2022-12-18T02:28:00;100880.13;;;-11.16;100.00
39105;BME280;46464;51.154;13.812;2022-12-18T02:30:30;100881.22;;;-11.26;100.00
39105;BME280;46464;51.154;13.812;2022-12-18T02:33:01;100888.91;;;-11.28;100.00
39105;BME280;46464;51.154;13.812;2022-12-18T02:35:32;100889.44;;;-11.33;100.00
39105;BME280;46464;51.154;13.812;2022-12-18T02:38:01;100894.81;;;-11.30;100.00
39105;BME280;46464;51.154;13.812;2022-12-18T02:40:30;100887.13;;;-11.29;100.00
39105;BME280;46464;51.154;13.812;2022-12-18T02:43:23;100888.81;;;-11.29;100.00
39105;BME280;46464;51.154;13.812;2022-12-18T02:45:53;100890.81;;;-11.25;100.00
39105;BME280;46464;51.154;13.812;2022-12-18T02:48:24;100883.03;;;-11.25;100.00
39105;BME280;46464;51.154;13.812;2022-12-18T02:51:08;100890.91;;;-11.24;100.00
39105;BME280;46464;51.154;13.812;2022-12-18T02:53:50;100890.50;;;-11.16;100.00
39105;BME280;46464;51.154;13.812;2022-12-18T02:56:28;100901.88;;;-11.14;100.00
39105;BME280;46464;51.154;13.812;2022-12-18T02:59:19;100895.91;;;-11.13;100.00
39105;BME280;46464;51.154;13.812;2022-12-18T03:08:20;100891.09;;;-10.94;100.00
39105;BME280;46464;51.154;13.812;2022-12-18T03:10:59;100887.97;;;-10.88;100.00
39105;BME280;46464;51.154;13.812;2022-12-18T03:13:51;100891.16;;;-10.79;100.00
39105;BME280;46464;51.154;13.812;2022-12-18T03:16:27;100890.53;;;-10.75;100.00
39105;BME280;46464;51.154;13.812;2022-12-18T03:18:58;100888.44;;;-10.80;100.00
39105;BME280;46464;51.154;13.812;2022-12-18T03:21:39;100893.75;;;-10.79;100.00
39105;BME280;46464;51.154;13.812;2022-12-18T03:24:08;100893.94;;;-10.76;100.00
39105;BME280;46464;51.154;13.812;2022-12-18T03:26:38;100896.81;;;-10.71;100.00
39105;BME280;46464;51.154;13.812;2022-12-18T03:29:10;100896.81;;;-10.71;100.00
39105;BME280;46464;51.154;13.812;2022-12-18T03:31:41;100896.53;;;-10.76;100.00
39105;BME280;46464;51.154;13.812;2022-12-18T03:34:23;100896.63;;;-10.74;100.00
39105;BME280;46464;51.154;13.812;2022-12-18T03:36:53;100899.75;;;-10.80;100.00
39105;BME280;46464;51.154;13.812;2022-12-18T03:39:20;100899.44;;;-10.84;100.00
39105;BME280;46464;51.154;13.812;2022-12-18T03:41:51;100912.34;;;-10.86;100.00
39105;BME280;46464;51.154;13.812;2022-12-18T03:44:34;100919.13;;;-10.88;100.00
39105;BME280;46464;51.154;13.812;2022-12-18T03:47:20;100922.03;;;-10.97;100.00
39105;BME280;46464;51.154;13.812;2022-12-18T03:52:39;100907.47;;;-10.95;100.00
39105;BME280;46464;51.154;13.812;2022-12-18T03:55:09;100908.25;;;-10.96;100.00
39105;BME280;46464;51.154;13.812;2022-12-18T03:57:37;100915.44;;;-11.05;100.00
39105;BME280;46464;51.154;13.812;2022-12-18T04:00:11;100912.97;;;-11.17;100.00
39105;BME280;46464;51.154;13.812;2022-12-18T04:02:42;100906.78;;;-11.19;100.00
39105;BME280;46464;51.154;13.812;2022-12-18T04:05:11;100910.47;;;-11.29;100.00
39105;BME280;46464;51.154;13.812;2022-12-18T04:07:39;100920.56;;;-11.33;100.00
39105;BME280;46464;51.154;13.812;2022-12-18T04:10:07;100924.13;;;-11.31;100.00
39105;BME280;46464;51.154;13.812;2022-12-18T04:12:37;100924.22;;;-11.30;100.00
39105;BME280;46464;51.154;13.812;2022-12-18T04:15:04;100934.50;;;-11.31;100.00
39105;BME280;46464;51.154;13.812;2022-12-18T04:17:31;100936.28;;;-11.44;100.00
39105;BME280;46464;51.154;13.812;2022-12-18T04:19:58;100935.78;;;-11.52;99.98
39105;BME280;46464;51.154;13.812;2022-12-18T04:22:24;100930.19;;;-11.58;100.00
39105;BME280;46464;51.154;13.812;2022-12-18T04:24:51;100929.41;;;-11.57;100.00
39105;BME280;46464;51.154;13.812;2022-12-18T04:27:17;100939.97;;;-11.54;100.00
39105;BME280;46464;51.154;13.812;2022-12-18T04:29:44;100936.81;;;-11.49;100.00
39105;BME280;46464;51.154;13.812;2022-12-18T04:32:11;100940.28;;;-11.49;100.00
39105;BME280;46464;51.154;13.812;2022-12-18T04:34:37;100934.59;;;-11.57;100.00
39105;BME280;46464;51.154;13.812;2022-12-18T04:37:04;100943.94;;;-11.59;100.00
39105;BME280;46464;51.154;13.812;2022-12-18T04:39:30;100950.72;;;-11.61;100.00
39105;BME280;46464;51.154;13.812;2022-12-18T04:41:57;100953.91;;;-11.65;100.00
39105;BME280;46464;51.154;13.812;2022-12-18T04:44:26;100951.13;;;-11.68;100.00
39105;BME280;46464;51.154;13.812;2022-12-18T04:46:53;100952.72;;;-11.70;100.00
39105;BME280;46464;51.154;13.812;2022-12-18T04:49:19;100954.66;;;-11.79;99.95
39105;BME280;46464;51.154;13.812;2022-12-18T04:51:46;100949.66;;;-11.90;98.86
39105;BME280;46464;51.154;13.812;2022-12-18T04:54:12;100952.22;;;-12.03;98.84
39105;BME280;46464;51.154;13.812;2022-12-18T04:56:39;100948.28;;;-11.98;99.32
39105;BME280;46464;51.154;13.812;2022-12-18T04:59:06;100946.59;;;-11.97;99.32
39105;BME280;46464;51.154;13.812;2022-12-18T05:01:32;100935.34;;;-11.98;99.67
39105;BME280;46464;51.154;13.812;2022-12-18T05:04:01;100929.13;;;-12.00;99.53
39105;BME280;46464;51.154;13.812;2022-12-18T05:06:28;100932.19;;;-12.06;99.29
39105;BME280;46464;51.154;13.812;2022-12-18T05:08:54;100937.19;;;-12.09;99.16
39105;BME280;46464;51.154;13.812;2022-12-18T05:11:21;100938.84;;;-12.09;99.40
39105;BME280;46464;51.154;13.812;2022-12-18T05:13:48;100941.84;;;-12.17;99.18
39105;BME280;46464;51.154;13.812;2022-12-18T05:16:14;100936.69;;;-12.28;98.29
39105;BME280;46464;51.154;13.812;2022-12-18T05:18:41;100942.66;;;-12.29;98.56
39105;BME280;46464;51.154;13.812;2022-12-18T05:21:08;100950.75;;;-12.25;98.92
39105;BME280;46464;51.154;13.812;2022-12-18T05:23:35;100942.34;;;-12.34;98.52
39105;BME280;46464;51.154;13.812;2022-12-18T05:26:04;100941.38;;;-12.48;98.50
39105;BME280;46464;51.154;13.812;2022-12-18T05:28:33;100948.03;;;-12.52;98.61
39105;BME280;46464;51.154;13.812;2022-12-18T05:31:02;100942.06;;;-12.51;98.82
39105;BME280;46464;51.154;13.812;2022-12-18T05:33:31;100947.66;;;-12.44;98.98
39105;BME280;46464;51.154;13.812;2022-12-18T05:36:02;100958.25;;;-12.41;99.33
39105;BME280;46464;51.154;13.812;2022-12-18T05:38:31;100948.00;;;-12.40;99.20
39105;BME280;46464;51.154;13.812;2022-12-18T05:40:58;100946.31;;;-12.39;99.20
39105;BME280;46464;51.154;13.812;2022-12-18T05:43:25;100950.69;;;-12.38;99.22
39105;BME280;46464;51.154;13.812;2022-12-18T05:45:53;100957.69;;;-12.37;99.30
39105;BME280;46464;51.154;13.812;2022-12-18T05:48:20;100949.69;;;-12.40;99.24
39105;BME280;46464;51.154;13.812;2022-12-18T05:50:49;100950.50;;;-12.41;98.99
39105;BME280;46464;51.154;13.812;2022-12-18T05:53:19;100951.97;;;-12.45;98.99
39105;BME280;46464;51.154;13.812;2022-12-18T05:55:46;100955.34;;;-12.46;99.13
39105;BME280;46464;51.154;13.812;2022-12-18T05:58:13;100958.03;;;-12.44;98.63
39105;BME280;46464;51.154;13.812;2022-12-18T06:00:43;100963.78;;;-12.48;98.53
39105;BME280;46464;51.154;13.812;2022-12-18T06:03:11;100964.00;;;-12.45;98.61
39105;BME280;46464;51.154;13.812;2022-12-18T06:05:40;100962.78;;;-12.51;98.94
39105;BME280;46464;51.154;13.812;2022-12-18T06:08:08;100962.56;;;-12.54;98.60
39105;BME280;46464;51.154;13.812;2022-12-18T06:10:34;100960.66;;;-12.56;98.18
39105;BME280;46464;51.154;13.812;2022-12-18T06:13:01;100968.63;;;-12.53;98.68
39105;BME280;46464;51.154;13.812;2022-12-18T06:15:28;100968.63;;;-12.53;98.53
39105;BME280;46464;51.154;13.812;2022-12-18T06:17:54;100966.16;;;-12.52;98.70
39105;BME280;46464;51.154;13.812;2022-12-18T06:20:21;100971.13;;;-12.55;98.48
39105;BME280;46464;51.154;13.812;2022-12-18T06:22:48;100968.44;;;-12.56;98.41
39105;BME280;46464;51.154;13.812;2022-12-18T06:25:15;100974.94;;;-12.61;98.16
39105;BME280;46464;51.154;13.812;2022-12-18T06:27:41;100973.28;;;-12.61;98.68
39105;BME280;46464;51.154;13.812;2022-12-18T06:30:09;100983.97;;;-12.56;98.67
39105;BME280;46464;51.154;13.812;2022-12-18T06:32:36;100977.28;;;-12.53;98.74
39105;BME280;46464;51.154;13.812;2022-12-18T06:35:03;100976.50;;;-12.52;98.71
39105;BME280;46464;51.154;13.812;2022-12-18T06:37:30;100976.06;;;-12.58;98.52
39105;BME280;46464;51.154;13.812;2022-12-18T06:39:57;100978.91;;;-12.67;98.35
39105;BME280;46464;51.154;13.812;2022-12-18T06:42:24;100975.00;;;-12.73;98.30
39105;BME280;46464;51.154;13.812;2022-12-18T06:44:51;100988.38;;;-12.67;98.32
39105;BME280;46464;51.154;13.812;2022-12-18T06:47:18;100988.81;;;-12.61;98.67
39105;BME280;46464;51.154;13.812;2022-12-18T06:49:45;100994.22;;;-12.70;98.31
39105;BME280;46464;51.154;13.812;2022-12-18T06:52:11;100998.81;;;-12.66;98.36
39105;BME280;46464;51.154;13.812;2022-12-18T06:54:38;101005.22;;;-12.60;98.52
39105;BME280;46464;51.154;13.812;2022-12-18T06:57:04;100994.31;;;-12.56;98.66
39105;BME280;46464;51.154;13.812;2022-12-18T06:59:31;101004.44;;;-12.59;99.06
39105;BME280;46464;51.154;13.812;2022-12-18T07:01:57;101006.25;;;-12.58;98.83
39105;BME280;46464;51.154;13.812;2022-12-18T07:04:29;101005.47;;;-12.57;98.90
39105;BME280;46464;51.154;13.812;2022-12-18T07:06:56;101012.22;;;-12.59;99.00
39105;BME280;46464;51.154;13.812;2022-12-18T07:09:24;101018.75;;;-12.64;98.60
39105;BME280;46464;51.154;13.812;2022-12-18T07:11:51;101019.09;;;-12.72;98.56
39105;BME280;46464;51.154;13.812;2022-12-18T07:14:17;101018.19;;;-12.72;98.80
39105;BME280;46464;51.154;13.812;2022-12-18T07:16:44;101021.78;;;-12.70;98.76
39105;BME280;46464;51.154;13.812;2022-12-18T07:19:11;101022.03;;;-12.67;98.60
39105;BME280;46464;51.154;13.812;2022-12-18T07:21:37;101015.38;;;-12.63;98.88
39105;BME280;46464;51.154;13.812;2022-12-18T07:24:04;101015.38;;;-12.63;98.77
39105;BME280;46464;51.154;13.812;2022-12-18T07:26:31;101007.81;;;-12.60;98.90
39105;BME280;46464;51.154;13.812;2022-12-18T07:28:57;101013.22;;;-12.57;98.94
39105;BME280;46464;51.154;13.812;2022-12-18T07:31:25;101006.34;;;-12.57;98.78
39105;BME280;46464;51.154;13.812;2022-12-18T07:33:52;101020.84;;;-12.59;98.53
39105;BME280;46464;51.154;13.812;2022-12-18T07:36:18;101033.25;;;-12.55;98.75
39105;BME280;46464;51.154;13.812;2022-12-18T07:38:49;101029.22;;;-12.51;98.85
39105;BME280;46464;51.154;13.812;2022-12-18T07:41:16;101037.84;;;-12.51;99.06
39105;BME280;46464;51.154;13.812;2022-12-18T07:43:43;101043.91;;;-12.50;98.91
39105;BME280;46464;51.154;13.812;2022-12-18T07:46:11;101054.84;;;-12.42;99.30
39105;BME280;46464;51.154;13.812;2022-12-18T07:48:43;101048.06;;;-12.40;99.36
39105;BME280;46464;51.154;13.812;2022-12-18T07:51:16;101046.94;;;-12.32;99.55
39105;BME280;46464;51.154;13.812;2022-12-18T07:53:43;101049.88;;;-12.27;99.43
39105;BME280;46464;51.154;13.812;2022-12-18T07:56:10;101052.91;;;-12.21;99.83
39105;BME280;46464;51.154;13.812;2022-12-18T07:58:56;101048.34;;;-12.12;99.42
39105;BME280;46464;51.154;13.812;2022-12-18T08:01:23;101043.50;;;-12.07;99.23
39105;BME280;46464;51.154;13.812;2022-12-18T08:03:51;101043.53;;;-11.94;99.61
39105;BME280;46464;51.154;13.812;2022-12-18T08:06:18;101037.25;;;-11.72;100.00
39105;BME280;46464;51.154;13.812;2022-12-18T08:08:48;101031.56;;;-11.41;100.00
39105;BME280;46464;51.154;13.812;2022-12-18T08:11:15;101018.75;;;-10.99;100.00
39105;BME280;46464;51.154;13.812;2022-12-18T08:13:42;101020.28;;;-10.63;100.00
39105;BME280;46464;51.154;13.812;2022-12-18T08:16:08;101010.63;;;-10.37;100.00
39105;BME280;46464;51.154;13.812;2022-12-18T08:18:37;101015.72;;;-10.10;100.00
39105;BME280;46464;51.154;13.812;2022-12-18T08:21:10;101007.47;;;-9.90;100.00
39105;BME280;46464;51.154;13.812;2022-12-18T08:23:37;101010.19;;;-9.73;100.00
39105;BME280;46464;51.154;13.812;2022-12-18T08:26:08;101015.88;;;-9.50;100.00
39105;BME280;46464;51.154;13.812;2022-12-18T08:28:35;101021.00;;;-9.37;100.00
39105;BME280;46464;51.154;13.812;2022-12-18T08:31:02;101025.72;;;-9.16;100.00
39105;BME280;46464;51.154;13.812;2022-12-18T08:33:28;101035.19;;;-9.02;100.00
39105;BME280;46464;51.154;13.812;2022-12-18T08:35:55;101032.78;;;-8.84;100.00
39105;BME280;46464;51.154;13.812;2022-12-18T08:38:21;101020.63;;;-8.68;100.00
39105;BME280;46464;51.154;13.812;2022-12-18T08:40:49;101024.25;;;-8.50;100.00
39105;BME280;46464;51.154;13.812;2022-12-18T08:43:16;101029.13;;;-8.24;100.00
39105;BME280;46464;51.154;13.812;2022-12-18T08:46:01;101015.78;;;-7.98;100.00
39105;BME280;46464;51.154;13.812;2022-12-18T08:48:27;101015.06;;;-7.79;100.00
39105;BME280;46464;51.154;13.812;2022-12-18T08:50:58;101019.50;;;-7.43;100.00
39105;BME280;46464;51.154;13.812;2022-12-18T08:53:26;101021.13;;;-6.94;100.00
39105;BME280;46464;51.154;13.812;2022-12-18T08:56:00;101015.47;;;-6.49;100.00
39105;BME280;46464;51.154;13.812;2022-12-18T08:58:27;101014.34;;;-5.98;100.00
39105;BME280;46464;51.154;13.812;2022-12-18T09:00:54;101029.47;;;-5.52;100.00
39105;BME280;46464;51.154;13.812;2022-12-18T09:03:20;101027.78;;;-5.11;100.00
39105;BME280;46464;51.154;13.812;2022-12-18T09:05:48;101028.09;;;-4.61;100.00
39105;BME280;46464;51.154;13.812;2022-12-18T09:08:15;101028.81;;;-4.21;100.00
39105;BME280;46464;51.154;13.812;2022-12-18T09:10:43;101026.72;;;-3.84;100.00
39105;BME280;46464;51.154;13.812;2022-12-18T09:13:11;101032.75;;;-3.63;100.00
39105;BME280;46464;51.154;13.812;2022-12-18T09:15:42;101029.91;;;-3.20;99.38
39105;BME280;46464;51.154;13.812;2022-12-18T09:18:09;101028.88;;;-3.00;95.84
39105;BME280;46464;51.154;13.812;2022-12-18T09:20:36;101034.72;;;-2.83;95.44
39105;BME280;46464;51.154;13.812;2022-12-18T09:23:03;101049.00;;;-2.74;93.07
39105;BME280;46464;51.154;13.812;2022-12-18T09:25:30;101053.47;;;-2.72;92.96
39105;BME280;46464;51.154;13.812;2022-12-18T09:27:59;101052.84;;;-2.65;92.66
39105;BME280;46464;51.154;13.812;2022-12-18T09:30:26;101052.78;;;-2.66;91.48
39105;BME280;46464;51.154;13.812;2022-12-18T09:32:53;101059.69;;;-2.70;91.59
39105;BME280;46464;51.154;13.812;2022-12-18T09:35:20;101052.78;;;-2.66;91.63
39105;BME280;46464;51.154;13.812;2022-12-18T09:37:47;101063.94;;;-2.73;90.95
39105;BME280;46464;51.154;13.812;2022-12-18T09:40:19;101063.06;;;-2.74;90.81
39105;BME280;46464;51.154;13.812;2022-12-18T09:42:57;101060.72;;;-2.65;90.96
39105;BME280;46464;51.154;13.812;2022-12-18T09:45:25;101054.50;;;-2.67;91.52
39105;BME280;46464;51.154;13.812;2022-12-18T09:47:54;101057.91;;;-2.71;90.86
39105;BME280;46464;51.154;13.812;2022-12-18T09:52:51;101057.59;;;-2.80;90.94
39105;BME280;46464;51.154;13.812;2022-12-18T09:55:25;101057.97;;;-2.95;91.38
39105;BME280;46464;51.154;13.812;2022-12-18T09:58:30;101051.31;;;-3.10;92.33
39105;BME280;46464;51.154;13.812;2022-12-18T10:00:58;101048.91;;;-3.28;92.62
39105;BME280;46464;51.154;13.812;2022-12-18T10:03:24;101039.94;;;-3.34;93.56
39105;BME280;46464;51.154;13.812;2022-12-18T10:06:15;101036.84;;;-3.47;94.13
39105;BME280;46464;51.154;13.812;2022-12-18T10:09:01;101032.56;;;-3.45;94.66
39105;BME280;46464;51.154;13.812;2022-12-18T10:14:35;101008.69;;;-3.51;95.17
39105;BME280;46464;51.154;13.812;2022-12-18T10:25:20;101002.44;;;-3.54;96.07
39105;BME280;46464;51.154;13.812;2022-12-18T10:27:48;100992.69;;;-3.57;96.44
39105;BME280;46464;51.154;13.812;2022-12-18T10:30:20;100982.34;;;-3.52;97.09
39105;BME280;46464;51.154;13.812;2022-12-18T10:32:47;100981.69;;;-3.47;97.73
39105;BME280;46464;51.154;13.812;2022-12-18T10:35:23;100982.06;;;-3.36;97.01
39105;BME280;46464;51.154;13.812;2022-12-18T10:38:00;100981.06;;;-3.39;96.58
39105;BME280;46464;51.154;13.812;2022-12-18T10:40:27;100975.06;;;-3.35;96.52
39105;BME280;46464;51.154;13.812;2022-12-18T10:43:13;100968.34;;;-3.27;95.82
39105;BME280;46464;51.154;13.812;2022-12-18T10:45:41;100965.72;;;-3.27;96.22
39105;BME280;46464;51.154;13.812;2022-12-18T10:48:19;100969.22;;;-3.27;96.39
39105;BME280;46464;51.154;13.812;2022-12-18T10:50:49;100957.94;;;-3.24;96.58
39105;BME280;46464;51.154;13.812;2022-12-18T10:53:37;100962.31;;;-3.25;96.46
39105;BME280;46464;51.154;13.812;2022-12-18T10:56:05;100958.84;;;-3.23;96.62
39105;BME280;46464;51.154;13.812;2022-12-18T10:58:37;100962.69;;;-3.14;97.22
39105;BME280;46464;51.154;13.812;2022-12-18T11:06:19;100955.63;;;-3.15;95.16
39105;BME280;46464;51.154;13.812;2022-12-18T11:11:25;100951.25;;;-3.14;95.77
39105;BME280;46464;51.154;13.812;2022-12-18T11:14:14;100952.56;;;-3.01;95.72
39105;BME280;46464;51.154;13.812;2022-12-18T11:16:46;100950.16;;;-2.95;94.16
39105;BME280;46464;51.154;13.812;2022-12-18T11:19:38;100939.69;;;-2.94;93.95
39105;BME280;46464;51.154;13.812;2022-12-18T11:22:29;100935.53;;;-2.85;93.53
39105;BME280;46464;51.154;13.812;2022-12-18T11:28:03;100935.53;;;-2.85;92.93
39105;BME280;46464;51.154;13.812;2022-12-18T11:30:35;100930.25;;;-2.87;93.12
39105;BME280;46464;51.154;13.812;2022-12-18T11:33:09;100939.88;;;-2.87;92.39
39105;BME280;46464;51.154;13.812;2022-12-18T11:38:28;100936.28;;;-2.89;91.14
39105;BME280;46464;51.154;13.812;2022-12-18T11:43:54;100936.59;;;-2.80;91.18
39105;BME280;46464;51.154;13.812;2022-12-18T11:46:34;100936.81;;;-2.74;91.82
39105;BME280;46464;51.154;13.812;2022-12-18T11:49:26;100930.47;;;-2.79;91.20
39105;BME280;46464;51.154;13.812;2022-12-18T11:52:21;100935.66;;;-2.82;91.77
39105;BME280;46464;51.154;13.812;2022-12-18T11:54:53;100930.44;;;-2.81;92.47
39105;BME280;46464;51.154;13.812;2022-12-18T11:57:30;100936.69;;;-2.77;92.76
39105;BME280;46464;51.154;13.812;2022-12-18T12:05:31;100937.81;;;-2.70;92.32
39105;BME280;46464;51.154;13.812;2022-12-18T12:11:02;100942.34;;;-2.65;92.75
39105;BME280;46464;51.154;13.812;2022-12-18T12:16:27;100947.31;;;-2.47;89.28
39105;BME280;46464;51.154;13.812;2022-12-18T12:19:28;100955.28;;;-2.44;88.45
39105;BME280;46464;51.154;13.812;2022-12-18T12:22:31;100957.88;;;-2.45;87.60
39105;BME280;46464;51.154;13.812;2022-12-18T12:30:16;100957.84;;;-2.47;87.20
39105;BME280;46464;51.154;13.812;2022-12-18T12:32:58;100962.03;;;-2.52;85.90
39105;BME280;46464;51.154;13.812;2022-12-18T12:35:44;100976.75;;;-2.58;86.49
39105;BME280;46464;51.154;13.812;2022-12-18T12:38:21;100987.41;;;-2.54;87.22
39105;BME280;46464;51.154;13.812;2022-12-18T12:40:58;100984.88;;;-2.51;87.62
39105;BME280;46464;51.154;13.812;2022-12-18T12:43:35;100980.25;;;-2.58;87.88
39105;BME280;46464;51.154;13.812;2022-12-18T12:46:10;100992.34;;;-2.65;87.88
39105;BME280;46464;51.154;13.812;2022-12-18T12:48:47;100992.16;;;-2.69;88.48
39105;BME280;46464;51.154;13.812;2022-12-18T12:51:19;100990.22;;;-2.77;88.43
39105;BME280;46464;51.154;13.812;2022-12-18T12:53:48;100984.84;;;-2.80;88.54
39105;BME280;46464;51.154;13.812;2022-12-18T12:56:18;100978.41;;;-2.88;87.98
39105;BME280;46464;51.154;13.812;2022-12-18T12:59:00;100974.50;;;-3.01;87.95
39105;BME280;46464;51.154;13.812;2022-12-18T13:07:17;100957.41;;;-3.39;88.88
39105;BME280;46464;51.154;13.812;2022-12-18T13:10:13;100957.97;;;-3.48;87.83
39105;BME280;46464;51.154;13.812;2022-12-18T13:13:11;100963.91;;;-3.54;88.87
39105;BME280;46464;51.154;13.812;2022-12-18T13:16:07;100969.06;;;-3.57;89.00
39105;BME280;46464;51.154;13.812;2022-12-18T13:18:34;100974.09;;;-3.63;88.52
39105;BME280;46464;51.154;13.812;2022-12-18T13:23:39;100971.81;;;-3.78;89.44
39105;BME280;46464;51.154;13.812;2022-12-18T13:36:55;100962.06;;;-4.05;89.54
39105;BME280;46464;51.154;13.812;2022-12-18T13:39:32;100955.69;;;-4.12;89.86
39105;BME280;46464;51.154;13.812;2022-12-18T13:44:36;100956.22;;;-4.21;90.79
39105;BME280;46464;51.154;13.812;2022-12-18T13:47:34;100962.38;;;-4.20;90.42
39105;BME280;46464;51.154;13.812;2022-12-18T13:50:34;100963.09;;;-4.24;90.72
39105;BME280;46464;51.154;13.812;2022-12-18T13:53:22;100955.91;;;-4.28;90.68
39105;BME280;46464;51.154;13.812;2022-12-18T13:55:51;100948.66;;;-4.35;91.09
39105;BME280;46464;51.154;13.812;2022-12-18T13:58:18;100942.56;;;-4.34;90.95
39105;BME280;46464;51.154;13.812;2022-12-18T14:00:45;100946.03;;;-4.35;90.93
39105;BME280;46464;51.154;13.812;2022-12-18T14:03:24;100948.53;;;-4.39;91.09
39105;BME280;46464;51.154;13.812;2022-12-18T14:05:59;100940.53;;;-4.42;91.49
39105;BME280;46464;51.154;13.812;2022-12-18T14:08:32;100950.19;;;-4.41;91.38
39105;BME280;46464;51.154;13.812;2022-12-18T14:11:00;100958.78;;;-4.45;91.26
39105;BME280;46464;51.154;13.812;2022-12-18T14:13:31;100965.47;;;-4.53;90.93
39105;BME280;46464;51.154;13.812;2022-12-18T14:16:00;100969.69;;;-4.57;91.59
39105;BME280;46464;51.154;13.812;2022-12-18T14:18:36;100966.03;;;-4.60;91.37
39105;BME280;46464;51.154;13.812;2022-12-18T14:21:06;100963.91;;;-4.71;91.98